sensor_id;sensor_type;location;lat;lon;timestamp;temperature;humidity
13328;DHT22;6733;51.044;3.746;2022-07-12T00:01:42;19.20;99.90
13328;DHT22;6733;51.044;3.746;2022-07-12T00:04:08;19.20;99.90
13328;DHT22;6733;51.044;3.746;2022-07-12T00:06:35;19.20;99.90
13328;DHT22;6733;51.044;3.746;2022-07-12T00:09:02;19.20;99.90
13328;DHT22;6733;51.044;3.746;2022-07-12T00:11:28;19.20;99.90
13328;DHT22;6733;51.044;3.746;2022-07-12T00:13:54;19.10;99.90
13328;DHT22;6733;51.044;3.746;2022-07-12T00:16:20;19.10;99.90
13328;DHT22;6733;51.044;3.746;2022-07-12T00:18:46;19.10;99.90
13328;DHT22;6733;51.044;3.746;2022-07-12T00:21:12;19.00;99.90
13328;DHT22;6733;51.044;3.746;2022-07-12T00:23:38;19.00;99.90
13328;DHT22;6733;51.044;3.746;2022-07-12T00:26:04;19.00;99.90
13328;DHT22;6733;51.044;3.746;2022-07-12T00:28:31;19.00;99.90
13328;DHT22;6733;51.044;3.746;2022-07-12T00:30:58;19.00;99.90
13328;DHT22;6733;51.044;3.746;2022-07-12T00:33:24;19.00;99.90
13328;DHT22;6733;51.044;3.746;2022-07-12T00:35:51;19.00;99.90
13328;DHT22;6733;51.044;3.746;2022-07-12T00:38:17;19.00;99.90
13328;DHT22;6733;51.044;3.746;2022-07-12T00:40:43;18.90;99.90
13328;DHT22;6733;51.044;3.746;2022-07-12T00:43:10;18.90;99.90
13328;DHT22;6733;51.044;3.746;2022-07-12T00:45:36;19.00;99.90
13328;DHT22;6733;51.044;3.746;2022-07-12T00:48:02;18.90;99.90
13328;DHT22;6733;51.044;3.746;2022-07-12T00:50:28;18.90;99.90
13328;DHT22;6733;51.044;3.746;2022-07-12T00:52:55;18.80;99.90
13328;DHT22;6733;51.044;3.746;2022-07-12T00:55:22;18.80;99.90
13328;DHT22;6733;51.044;3.746;2022-07-12T00:57:49;18.70;99.90
13328;DHT22;6733;51.044;3.746;2022-07-12T01:00:25;18.70;99.90
13328;DHT22;6733;51.044;3.746;2022-07-12T01:02:52;18.70;99.90
13328;DHT22;6733;51.044;3.746;2022-07-12T01:05:19;18.60;99.90
13328;DHT22;6733;51.044;3.746;2022-07-12T01:07:46;18.60;99.90
13328;DHT22;6733;51.044;3.746;2022-07-12T01:10:12;18.60;99.90
13328;DHT22;6733;51.044;3.746;2022-07-12T01:12:39;18.60;99.90
13328;DHT22;6733;51.044;3.746;2022-07-12T01:15:06;18.60;99.90
13328;DHT22;6733;51.044;3.746;2022-07-12T01:17:32;18.60;99.90
13328;DHT22;6733;51.044;3.746;2022-07-12T01:20:00;18.60;99.90
13328;DHT22;6733;51.044;3.746;2022-07-12T01:22:31;18.50;99.90
13328;DHT22;6733;51.044;3.746;2022-07-12T01:24:58;18.50;99.90
13328;DHT22;6733;51.044;3.746;2022-07-12T01:27:25;18.50;99.90
13328;DHT22;6733;51.044;3.746;2022-07-12T01:29:51;18.50;99.90
13328;DHT22;6733;51.044;3.746;2022-07-12T01:32:17;18.40;99.90
13328;DHT22;6733;51.044;3.746;2022-07-12T01:35:03;18.40;99.90
13328;DHT22;6733;51.044;3.746;2022-07-12T01:37:41;18.40;99.90
13328;DHT22;6733;51.044;3.746;2022-07-12T01:40:10;18.40;99.90
13328;DHT22;6733;51.044;3.746;2022-07-12T01:42:37;18.40;99.90
13328;DHT22;6733;51.044;3.746;2022-07-12T01:45:05;18.40;99.90
13328;DHT22;6733;51.044;3.746;2022-07-12T01:47:32;18.50;99.90
13328;DHT22;6733;51.044;3.746;2022-07-12T01:49:59;18.40;99.90
13328;DHT22;6733;51.044;3.746;2022-07-12T01:52:26;18.40;99.90
13328;DHT22;6733;51.044;3.746;2022-07-12T01:54:53;18.40;99.90
13328;DHT22;6733;51.044;3.746;2022-07-12T01:57:20;18.40;99.90
13328;DHT22;6733;51.044;3.746;2022-07-12T01:59:47;18.30;99.90
13328;DHT22;6733;51.044;3.746;2022-07-12T02:02:13;18.30;99.90
13328;DHT22;6733;51.044;3.746;2022-07-12T02:04:40;18.30;99.90
13328;DHT22;6733;51.044;3.746;2022-07-12T02:07:06;18.30;99.90
13328;DHT22;6733;51.044;3.746;2022-07-12T02:09:32;18.20;99.90
13328;DHT22;6733;51.044;3.746;2022-07-12T02:11:59;18.20;99.90
13328;DHT22;6733;51.044;3.746;2022-07-12T02:14:25;18.20;99.90
13328;DHT22;6733;51.044;3.746;2022-07-12T02:16:52;18.20;99.90
13328;DHT22;6733;51.044;3.746;2022-07-12T02:19:18;18.10;99.90
13328;DHT22;6733;51.044;3.746;2022-07-12T02:21:45;18.10;99.90
13328;DHT22;6733;51.044;3.746;2022-07-12T02:24:11;18.00;99.90
13328;DHT22;6733;51.044;3.746;2022-07-12T02:26:37;18.00;99.90
13328;DHT22;6733;51.044;3.746;2022-07-12T02:29:05;17.90;99.90
13328;DHT22;6733;51.044;3.746;2022-07-12T02:31:31;17.90;99.90
13328;DHT22;6733;51.044;3.746;2022-07-12T02:34:04;17.90;99.90
13328;DHT22;6733;51.044;3.746;2022-07-12T02:36:31;18.00;99.90
13328;DHT22;6733;51.044;3.746;2022-07-12T02:38:57;17.90;99.90
13328;DHT22;6733;51.044;3.746;2022-07-12T02:41:29;18.00;99.90
13328;DHT22;6733;51.044;3.746;2022-07-12T02:43:55;17.90;99.90
13328;DHT22;6733;51.044;3.746;2022-07-12T02:46:21;17.90;99.90
13328;DHT22;6733;51.044;3.746;2022-07-12T02:48:47;17.90;99.90
13328;DHT22;6733;51.044;3.746;2022-07-12T02:51:13;17.90;99.90
13328;DHT22;6733;51.044;3.746;2022-07-12T02:53:40;17.80;99.90
13328;DHT22;6733;51.044;3.746;2022-07-12T02:56:06;17.80;99.90
13328;DHT22;6733;51.044;3.746;2022-07-12T02:58:34;17.70;99.90
13328;DHT22;6733;51.044;3.746;2022-07-12T03:01:00;17.70;99.90
13328;DHT22;6733;51.044;3.746;2022-07-12T03:03:26;17.70;99.90
13328;DHT22;6733;51.044;3.746;2022-07-12T03:05:52;17.70;99.90
13328;DHT22;6733;51.044;3.746;2022-07-12T03:08:18;17.70;99.90
13328;DHT22;6733;51.044;3.746;2022-07-12T03:10:45;17.70;99.90
13328;DHT22;6733;51.044;3.746;2022-07-12T03:13:11;17.70;99.90
13328;DHT22;6733;51.044;3.746;2022-07-12T03:15:38;17.70;99.90
13328;DHT22;6733;51.044;3.746;2022-07-12T03:18:04;17.70;99.90
13328;DHT22;6733;51.044;3.746;2022-07-12T03:20:31;17.60;99.90
13328;DHT22;6733;51.044;3.746;2022-07-12T03:22:57;17.60;99.90
13328;DHT22;6733;51.044;3.746;2022-07-12T03:25:24;17.60;99.90
13328;DHT22;6733;51.044;3.746;2022-07-12T03:27:50;17.50;99.90
13328;DHT22;6733;51.044;3.746;2022-07-12T03:30:17;17.50;99.90
13328;DHT22;6733;51.044;3.746;2022-07-12T03:32:43;17.50;99.90
13328;DHT22;6733;51.044;3.746;2022-07-12T03:35:13;17.50;99.90
13328;DHT22;6733;51.044;3.746;2022-07-12T03:40:09;17.40;99.90
13328;DHT22;6733;51.044;3.746;2022-07-12T03:42:36;17.40;99.90
13328;DHT22;6733;51.044;3.746;2022-07-12T03:45:03;17.30;99.90
13328;DHT22;6733;51.044;3.746;2022-07-12T03:47:29;17.20;99.90
13328;DHT22;6733;51.044;3.746;2022-07-12T03:49:57;17.20;99.90
13328;DHT22;6733;51.044;3.746;2022-07-12T03:52:23;17.20;99.90
13328;DHT22;6733;51.044;3.746;2022-07-12T03:54:50;17.00;99.90
13328;DHT22;6733;51.044;3.746;2022-07-12T03:57:16;17.00;99.90
13328;DHT22;6733;51.044;3.746;2022-07-12T03:59:43;16.90;99.90
13328;DHT22;6733;51.044;3.746;2022-07-12T04:02:10;17.00;99.90
13328;DHT22;6733;51.044;3.746;2022-07-12T04:04:36;17.00;99.90
13328;DHT22;6733;51.044;3.746;2022-07-12T04:07:03;17.10;99.90
13328;DHT22;6733;51.044;3.746;2022-07-12T04:09:30;17.10;99.90
13328;DHT22;6733;51.044;3.746;2022-07-12T04:11:56;17.20;99.90
13328;DHT22;6733;51.044;3.746;2022-07-12T04:14:22;17.20;99.90
13328;DHT22;6733;51.044;3.746;2022-07-12T04:16:48;17.30;99.90
13328;DHT22;6733;51.044;3.746;2022-07-12T04:19:15;17.40;99.90
13328;DHT22;6733;51.044;3.746;2022-07-12T04:21:41;17.40;99.90
13328;DHT22;6733;51.044;3.746;2022-07-12T04:24:07;17.50;99.90
13328;DHT22;6733;51.044;3.746;2022-07-12T04:26:33;17.60;99.90
13328;DHT22;6733;51.044;3.746;2022-07-12T04:28:59;17.60;99.90
13328;DHT22;6733;51.044;3.746;2022-07-12T04:31:25;17.60;99.90
13328;DHT22;6733;51.044;3.746;2022-07-12T04:33:51;17.70;99.90
13328;DHT22;6733;51.044;3.746;2022-07-12T04:36:17;17.80;99.90
13328;DHT22;6733;51.044;3.746;2022-07-12T04:38:44;17.70;99.90
13328;DHT22;6733;51.044;3.746;2022-07-12T04:41:10;17.80;99.90
13328;DHT22;6733;51.044;3.746;2022-07-12T04:43:36;17.90;99.90
13328;DHT22;6733;51.044;3.746;2022-07-12T04:46:20;17.90;99.90
13328;DHT22;6733;51.044;3.746;2022-07-12T04:48:46;18.00;99.90
13328;DHT22;6733;51.044;3.746;2022-07-12T04:51:12;17.90;99.90
13328;DHT22;6733;51.044;3.746;2022-07-12T04:53:40;18.00;99.90
13328;DHT22;6733;51.044;3.746;2022-07-12T04:56:07;18.00;99.90
13328;DHT22;6733;51.044;3.746;2022-07-12T04:58:33;18.10;99.90
13328;DHT22;6733;51.044;3.746;2022-07-12T05:00:59;18.20;99.90
13328;DHT22;6733;51.044;3.746;2022-07-12T05:03:25;18.10;99.90
13328;DHT22;6733;51.044;3.746;2022-07-12T05:05:55;18.20;99.90
13328;DHT22;6733;51.044;3.746;2022-07-12T05:08:21;18.30;99.90
13328;DHT22;6733;51.044;3.746;2022-07-12T05:10:48;18.30;99.90
13328;DHT22;6733;51.044;3.746;2022-07-12T05:13:14;18.40;99.90
13328;DHT22;6733;51.044;3.746;2022-07-12T05:15:40;18.40;99.90
13328;DHT22;6733;51.044;3.746;2022-07-12T05:18:06;18.60;99.90
13328;DHT22;6733;51.044;3.746;2022-07-12T05:20:32;18.60;99.90
13328;DHT22;6733;51.044;3.746;2022-07-12T05:22:59;18.70;99.90
13328;DHT22;6733;51.044;3.746;2022-07-12T05:25:25;18.60;99.90
13328;DHT22;6733;51.044;3.746;2022-07-12T05:27:51;18.70;99.90
13328;DHT22;6733;51.044;3.746;2022-07-12T05:30:17;18.70;99.90
13328;DHT22;6733;51.044;3.746;2022-07-12T05:32:44;18.70;99.90
13328;DHT22;6733;51.044;3.746;2022-07-12T05:35:10;18.70;99.90
13328;DHT22;6733;51.044;3.746;2022-07-12T05:37:36;18.70;99.90
13328;DHT22;6733;51.044;3.746;2022-07-12T05:40:02;18.60;99.90
13328;DHT22;6733;51.044;3.746;2022-07-12T05:42:28;18.60;99.90
13328;DHT22;6733;51.044;3.746;2022-07-12T05:44:55;18.60;99.90
13328;DHT22;6733;51.044;3.746;2022-07-12T05:47:21;18.70;99.90
13328;DHT22;6733;51.044;3.746;2022-07-12T05:49:47;18.70;99.90
13328;DHT22;6733;51.044;3.746;2022-07-12T05:52:13;18.70;99.90
13328;DHT22;6733;51.044;3.746;2022-07-12T05:54:58;18.60;99.90
13328;DHT22;6733;51.044;3.746;2022-07-12T05:57:24;18.70;99.90
13328;DHT22;6733;51.044;3.746;2022-07-12T05:59:50;18.80;99.90
13328;DHT22;6733;51.044;3.746;2022-07-12T06:02:16;18.90;99.90
13328;DHT22;6733;51.044;3.746;2022-07-12T06:04:42;19.00;99.90
13328;DHT22;6733;51.044;3.746;2022-07-12T06:07:08;19.10;99.90
13328;DHT22;6733;51.044;3.746;2022-07-12T06:09:35;19.30;99.90
13328;DHT22;6733;51.044;3.746;2022-07-12T06:12:01;19.30;99.90
13328;DHT22;6733;51.044;3.746;2022-07-12T06:14:28;19.50;99.90
13328;DHT22;6733;51.044;3.746;2022-07-12T06:16:54;19.80;99.90
13328;DHT22;6733;51.044;3.746;2022-07-12T06:19:20;19.90;99.90
13328;DHT22;6733;51.044;3.746;2022-07-12T06:21:49;19.90;99.90
13328;DHT22;6733;51.044;3.746;2022-07-12T06:24:15;20.00;99.90
13328;DHT22;6733;51.044;3.746;2022-07-12T06:26:42;20.10;99.90
13328;DHT22;6733;51.044;3.746;2022-07-12T06:29:08;20.30;99.90
13328;DHT22;6733;51.044;3.746;2022-07-12T06:31:34;20.50;99.90
13328;DHT22;6733;51.044;3.746;2022-07-12T06:34:00;20.60;99.90
13328;DHT22;6733;51.044;3.746;2022-07-12T06:36:27;20.70;99.90
13328;DHT22;6733;51.044;3.746;2022-07-12T06:38:53;20.80;99.90
13328;DHT22;6733;51.044;3.746;2022-07-12T06:41:19;21.00;99.90
13328;DHT22;6733;51.044;3.746;2022-07-12T06:43:45;21.00;99.90
13328;DHT22;6733;51.044;3.746;2022-07-12T06:46:11;21.20;99.90
13328;DHT22;6733;51.044;3.746;2022-07-12T06:48:37;21.00;99.90
13328;DHT22;6733;51.044;3.746;2022-07-12T06:51:03;21.20;99.90
13328;DHT22;6733;51.044;3.746;2022-07-12T06:53:30;21.50;99.90
13328;DHT22;6733;51.044;3.746;2022-07-12T06:55:56;21.60;99.90
13328;DHT22;6733;51.044;3.746;2022-07-12T06:58:23;21.80;99.90
13328;DHT22;6733;51.044;3.746;2022-07-12T07:00:49;22.10;99.90
13328;DHT22;6733;51.044;3.746;2022-07-12T07:03:15;22.40;99.90
13328;DHT22;6733;51.044;3.746;2022-07-12T07:05:41;22.50;99.90
13328;DHT22;6733;51.044;3.746;2022-07-12T07:08:08;22.70;99.90
13328;DHT22;6733;51.044;3.746;2022-07-12T07:10:34;22.70;99.90
13328;DHT22;6733;51.044;3.746;2022-07-12T07:13:00;23.00;99.90
13328;DHT22;6733;51.044;3.746;2022-07-12T07:15:26;22.80;99.90
13328;DHT22;6733;51.044;3.746;2022-07-12T07:17:53;22.60;99.90
13328;DHT22;6733;51.044;3.746;2022-07-12T07:20:19;22.70;99.90
13328;DHT22;6733;51.044;3.746;2022-07-12T07:22:45;22.70;99.90
13328;DHT22;6733;51.044;3.746;2022-07-12T07:25:11;22.90;99.90
13328;DHT22;6733;51.044;3.746;2022-07-12T07:27:38;23.00;99.90
13328;DHT22;6733;51.044;3.746;2022-07-12T07:30:05;23.00;99.90
13328;DHT22;6733;51.044;3.746;2022-07-12T07:32:50;23.00;99.90
13328;DHT22;6733;51.044;3.746;2022-07-12T07:35:16;22.80;99.90
13328;DHT22;6733;51.044;3.746;2022-07-12T07:37:42;22.70;99.90
13328;DHT22;6733;51.044;3.746;2022-07-12T07:40:09;22.40;99.90
13328;DHT22;6733;51.044;3.746;2022-07-12T07:42:35;22.50;99.90
13328;DHT22;6733;51.044;3.746;2022-07-12T07:45:01;22.70;99.90
13328;DHT22;6733;51.044;3.746;2022-07-12T07:47:29;22.80;99.90
13328;DHT22;6733;51.044;3.746;2022-07-12T07:49:55;23.20;99.90
13328;DHT22;6733;51.044;3.746;2022-07-12T07:52:22;23.20;99.90
13328;DHT22;6733;51.044;3.746;2022-07-12T07:54:48;23.00;99.90
13328;DHT22;6733;51.044;3.746;2022-07-12T07:57:14;22.90;99.90
13328;DHT22;6733;51.044;3.746;2022-07-12T07:59:40;22.80;99.90
13328;DHT22;6733;51.044;3.746;2022-07-12T08:02:06;23.10;99.90
13328;DHT22;6733;51.044;3.746;2022-07-12T08:04:36;23.20;99.90
13328;DHT22;6733;51.044;3.746;2022-07-12T08:07:02;23.70;99.90
13328;DHT22;6733;51.044;3.746;2022-07-12T08:09:29;23.70;99.90
13328;DHT22;6733;51.044;3.746;2022-07-12T08:11:55;24.30;99.90
13328;DHT22;6733;51.044;3.746;2022-07-12T08:14:21;24.60;99.90
13328;DHT22;6733;51.044;3.746;2022-07-12T08:16:47;24.30;99.90
13328;DHT22;6733;51.044;3.746;2022-07-12T08:19:13;24.40;99.90
13328;DHT22;6733;51.044;3.746;2022-07-12T08:21:40;24.80;99.90
13328;DHT22;6733;51.044;3.746;2022-07-12T08:24:06;24.80;99.90
13328;DHT22;6733;51.044;3.746;2022-07-12T08:26:32;25.10;99.90
13328;DHT22;6733;51.044;3.746;2022-07-12T08:28:58;25.10;99.90
13328;DHT22;6733;51.044;3.746;2022-07-12T08:31:24;25.50;99.90
13328;DHT22;6733;51.044;3.746;2022-07-12T08:33:51;25.50;99.90
13328;DHT22;6733;51.044;3.746;2022-07-12T08:36:17;25.40;99.90
13328;DHT22;6733;51.044;3.746;2022-07-12T08:38:43;25.40;99.90
13328;DHT22;6733;51.044;3.746;2022-07-12T08:41:14;25.40;99.90
13328;DHT22;6733;51.044;3.746;2022-07-12T08:43:41;25.10;99.90
13328;DHT22;6733;51.044;3.746;2022-07-12T08:46:12;25.10;99.90
13328;DHT22;6733;51.044;3.746;2022-07-12T08:48:40;25.60;99.90
13328;DHT22;6733;51.044;3.746;2022-07-12T08:51:14;26.00;99.90
13328;DHT22;6733;51.044;3.746;2022-07-12T08:53:44;26.10;99.90
13328;DHT22;6733;51.044;3.746;2022-07-12T08:56:29;26.20;99.90
13328;DHT22;6733;51.044;3.746;2022-07-12T08:59:16;26.40;99.90
13328;DHT22;6733;51.044;3.746;2022-07-12T09:01:53;26.60;99.90
13328;DHT22;6733;51.044;3.746;2022-07-12T09:04:23;26.40;99.90
13328;DHT22;6733;51.044;3.746;2022-07-12T09:06:50;26.80;99.90
13328;DHT22;6733;51.044;3.746;2022-07-12T09:09:26;26.70;99.90
13328;DHT22;6733;51.044;3.746;2022-07-12T09:11:53;26.50;99.90
13328;DHT22;6733;51.044;3.746;2022-07-12T09:14:20;26.70;99.90
13328;DHT22;6733;51.044;3.746;2022-07-12T09:17:07;27.20;99.90
13328;DHT22;6733;51.044;3.746;2022-07-12T09:19:39;27.00;99.90
13328;DHT22;6733;51.044;3.746;2022-07-12T09:22:14;26.80;99.90
13328;DHT22;6733;51.044;3.746;2022-07-12T09:24:42;27.00;99.90
13328;DHT22;6733;51.044;3.746;2022-07-12T09:27:09;27.40;99.90
13328;DHT22;6733;51.044;3.746;2022-07-12T09:29:46;26.90;99.90
13328;DHT22;6733;51.044;3.746;2022-07-12T09:32:13;27.00;99.90
13328;DHT22;6733;51.044;3.746;2022-07-12T09:34:58;27.20;99.90
13328;DHT22;6733;51.044;3.746;2022-07-12T09:37:43;27.70;99.90
13328;DHT22;6733;51.044;3.746;2022-07-12T09:40:10;27.30;99.90
13328;DHT22;6733;51.044;3.746;2022-07-12T09:42:37;27.40;99.90
13328;DHT22;6733;51.044;3.746;2022-07-12T09:45:06;27.20;99.90
13328;DHT22;6733;51.044;3.746;2022-07-12T09:47:32;27.40;99.90
13328;DHT22;6733;51.044;3.746;2022-07-12T09:49:59;27.80;99.90
13328;DHT22;6733;51.044;3.746;2022-07-12T09:52:26;27.50;99.90
13328;DHT22;6733;51.044;3.746;2022-07-12T09:54:54;27.90;99.90
13328;DHT22;6733;51.044;3.746;2022-07-12T09:57:22;28.20;99.90
13328;DHT22;6733;51.044;3.746;2022-07-12T09:59:52;28.50;99.90
13328;DHT22;6733;51.044;3.746;2022-07-12T10:02:21;28.30;99.90
13328;DHT22;6733;51.044;3.746;2022-07-12T10:04:48;28.50;99.90
13328;DHT22;6733;51.044;3.746;2022-07-12T10:07:14;28.30;99.90
13328;DHT22;6733;51.044;3.746;2022-07-12T10:09:44;28.60;99.90
13328;DHT22;6733;51.044;3.746;2022-07-12T10:12:11;28.70;99.90
13328;DHT22;6733;51.044;3.746;2022-07-12T10:14:38;28.70;99.90
13328;DHT22;6733;51.044;3.746;2022-07-12T10:17:06;28.40;99.90
13328;DHT22;6733;51.044;3.746;2022-07-12T10:19:36;28.30;99.90
13328;DHT22;6733;51.044;3.746;2022-07-12T10:22:07;28.40;99.90
13328;DHT22;6733;51.044;3.746;2022-07-12T10:29:43;28.80;99.90
13328;DHT22;6733;51.044;3.746;2022-07-12T10:32:33;29.10;99.90
13328;DHT22;6733;51.044;3.746;2022-07-12T10:37:26;29.40;99.90
13328;DHT22;6733;51.044;3.746;2022-07-12T10:40:13;29.40;99.90
13328;DHT22;6733;51.044;3.746;2022-07-12T10:42:41;29.30;99.90
13328;DHT22;6733;51.044;3.746;2022-07-12T10:45:15;29.20;99.90
13328;DHT22;6733;51.044;3.746;2022-07-12T10:47:58;29.00;99.90
13328;DHT22;6733;51.044;3.746;2022-07-12T10:56:21;29.60;99.90
13328;DHT22;6733;51.044;3.746;2022-07-12T10:58:56;29.60;99.90
13328;DHT22;6733;51.044;3.746;2022-07-12T11:01:28;29.90;99.90
13328;DHT22;6733;51.044;3.746;2022-07-12T11:04:08;29.80;99.90
13328;DHT22;6733;51.044;3.746;2022-07-12T11:06:37;29.90;99.90
13328;DHT22;6733;51.044;3.746;2022-07-12T11:09:09;29.60;99.90
13328;DHT22;6733;51.044;3.746;2022-07-12T11:11:44;29.40;99.90
13328;DHT22;6733;51.044;3.746;2022-07-12T11:14:11;29.70;99.90
13328;DHT22;6733;51.044;3.746;2022-07-12T11:16:45;29.50;99.90
13328;DHT22;6733;51.044;3.746;2022-07-12T11:19:12;29.60;99.90
13328;DHT22;6733;51.044;3.746;2022-07-12T11:21:38;29.40;99.90
13328;DHT22;6733;51.044;3.746;2022-07-12T11:24:24;29.60;99.90
13328;DHT22;6733;51.044;3.746;2022-07-12T11:26:51;29.80;99.90
13328;DHT22;6733;51.044;3.746;2022-07-12T11:29:18;30.10;99.90
13328;DHT22;6733;51.044;3.746;2022-07-12T11:31:45;30.40;98.70
13328;DHT22;6733;51.044;3.746;2022-07-12T11:34:22;30.30;98.50
13328;DHT22;6733;51.044;3.746;2022-07-12T11:36:53;30.00;98.90
13328;DHT22;6733;51.044;3.746;2022-07-12T11:39:30;29.80;99.20
13328;DHT22;6733;51.044;3.746;2022-07-12T11:41:57;29.50;99.90
13328;DHT22;6733;51.044;3.746;2022-07-12T11:47:12;30.30;99.40
13328;DHT22;6733;51.044;3.746;2022-07-12T11:50:05;30.10;99.90
13328;DHT22;6733;51.044;3.746;2022-07-12T11:52:35;30.10;97.10
13328;DHT22;6733;51.044;3.746;2022-07-12T11:55:07;30.50;92.90
13328;DHT22;6733;51.044;3.746;2022-07-12T11:57:34;30.80;91.00
13328;DHT22;6733;51.044;3.746;2022-07-12T12:00:20;30.80;94.70
13328;DHT22;6733;51.044;3.746;2022-07-12T12:02:54;30.40;95.80
13328;DHT22;6733;51.044;3.746;2022-07-12T12:05:21;30.50;96.10
13328;DHT22;6733;51.044;3.746;2022-07-12T12:07:47;31.20;95.90
13328;DHT22;6733;51.044;3.746;2022-07-12T12:10:15;31.10;96.00
13328;DHT22;6733;51.044;3.746;2022-07-12T12:12:51;31.10;95.80
13328;DHT22;6733;51.044;3.746;2022-07-12T12:17:59;31.30;94.00
13328;DHT22;6733;51.044;3.746;2022-07-12T12:20:33;31.50;94.30
13328;DHT22;6733;51.044;3.746;2022-07-12T12:23:01;31.30;93.70
13328;DHT22;6733;51.044;3.746;2022-07-12T12:25:29;31.30;92.90
13328;DHT22;6733;51.044;3.746;2022-07-12T12:28:00;31.30;91.20
13328;DHT22;6733;51.044;3.746;2022-07-12T12:30:28;31.30;92.40
13328;DHT22;6733;51.044;3.746;2022-07-12T12:32:56;31.40;93.40
13328;DHT22;6733;51.044;3.746;2022-07-12T12:35:33;31.00;93.40
13328;DHT22;6733;51.044;3.746;2022-07-12T12:38:01;31.10;93.00
13328;DHT22;6733;51.044;3.746;2022-07-12T12:40:32;31.50;92.20
13328;DHT22;6733;51.044;3.746;2022-07-12T12:43:13;31.40;91.30
13328;DHT22;6733;51.044;3.746;2022-07-12T12:45:55;31.80;91.40
13328;DHT22;6733;51.044;3.746;2022-07-12T12:48:31;32.40;90.20
13328;DHT22;6733;51.044;3.746;2022-07-12T12:51:07;31.50;90.20
13328;DHT22;6733;51.044;3.746;2022-07-12T12:53:35;31.60;88.80
13328;DHT22;6733;51.044;3.746;2022-07-12T12:56:05;31.70;87.50
13328;DHT22;6733;51.044;3.746;2022-07-12T12:58:33;31.50;84.20
13328;DHT22;6733;51.044;3.746;2022-07-12T13:00:59;31.60;82.30
13328;DHT22;6733;51.044;3.746;2022-07-12T13:03:25;31.90;80.80
13328;DHT22;6733;51.044;3.746;2022-07-12T13:05:51;32.10;80.10
13328;DHT22;6733;51.044;3.746;2022-07-12T13:08:18;31.90;71.80
13328;DHT22;6733;51.044;3.746;2022-07-12T13:10:45;31.60;72.20
13328;DHT22;6733;51.044;3.746;2022-07-12T13:13:12;31.70;74.00
13328;DHT22;6733;51.044;3.746;2022-07-12T13:15:39;31.90;76.50
13328;DHT22;6733;51.044;3.746;2022-07-12T13:18:06;32.00;76.20
13328;DHT22;6733;51.044;3.746;2022-07-12T13:20:33;31.60;79.00
13328;DHT22;6733;51.044;3.746;2022-07-12T13:23:00;32.10;79.30
13328;DHT22;6733;51.044;3.746;2022-07-12T13:25:26;32.20;78.80
13328;DHT22;6733;51.044;3.746;2022-07-12T13:27:53;32.30;77.50
13328;DHT22;6733;51.044;3.746;2022-07-12T13:30:19;32.60;72.80
13328;DHT22;6733;51.044;3.746;2022-07-12T13:32:46;32.10;70.00
13328;DHT22;6733;51.044;3.746;2022-07-12T13:35:13;32.20;67.10
13328;DHT22;6733;51.044;3.746;2022-07-12T13:37:41;32.10;63.20
13328;DHT22;6733;51.044;3.746;2022-07-12T13:40:09;32.30;62.00
13328;DHT22;6733;51.044;3.746;2022-07-12T13:42:44;32.90;61.70
13328;DHT22;6733;51.044;3.746;2022-07-12T13:45:16;32.80;65.20
13328;DHT22;6733;51.044;3.746;2022-07-12T13:47:43;32.90;67.40
13328;DHT22;6733;51.044;3.746;2022-07-12T13:50:12;33.00;62.10
13328;DHT22;6733;51.044;3.746;2022-07-12T13:52:40;33.00;65.40
13328;DHT22;6733;51.044;3.746;2022-07-12T13:55:08;33.10;62.60
13328;DHT22;6733;51.044;3.746;2022-07-12T13:57:36;32.80;64.40
13328;DHT22;6733;51.044;3.746;2022-07-12T14:00:05;33.00;65.60
13328;DHT22;6733;51.044;3.746;2022-07-12T14:02:32;33.40;70.50
13328;DHT22;6733;51.044;3.746;2022-07-12T14:04:58;33.60;67.60
13328;DHT22;6733;51.044;3.746;2022-07-12T14:07:24;34.00;67.90
13328;DHT22;6733;51.044;3.746;2022-07-12T14:09:50;34.40;66.30
13328;DHT22;6733;51.044;3.746;2022-07-12T14:12:16;34.60;65.70
13328;DHT22;6733;51.044;3.746;2022-07-12T14:14:43;34.80;64.80
13328;DHT22;6733;51.044;3.746;2022-07-12T14:17:28;34.90;66.00
13328;DHT22;6733;51.044;3.746;2022-07-12T14:19:54;34.20;66.60
13328;DHT22;6733;51.044;3.746;2022-07-12T14:22:21;34.10;67.20
13328;DHT22;6733;51.044;3.746;2022-07-12T14:24:48;33.40;66.90
13328;DHT22;6733;51.044;3.746;2022-07-12T14:27:14;33.40;66.90
13328;DHT22;6733;51.044;3.746;2022-07-12T14:29:40;33.30;67.10
13328;DHT22;6733;51.044;3.746;2022-07-12T14:32:06;33.40;67.60
13328;DHT22;6733;51.044;3.746;2022-07-12T14:34:33;32.80;67.90
13328;DHT22;6733;51.044;3.746;2022-07-12T14:36:59;32.90;68.20
13328;DHT22;6733;51.044;3.746;2022-07-12T14:39:25;32.80;69.70
13328;DHT22;6733;51.044;3.746;2022-07-12T14:41:52;32.90;69.90
13328;DHT22;6733;51.044;3.746;2022-07-12T14:44:18;32.60;71.30
13328;DHT22;6733;51.044;3.746;2022-07-12T14:46:45;32.40;70.70
13328;DHT22;6733;51.044;3.746;2022-07-12T14:49:12;32.40;70.30
13328;DHT22;6733;51.044;3.746;2022-07-12T14:51:38;32.50;70.20
13328;DHT22;6733;51.044;3.746;2022-07-12T14:54:04;32.40;70.00
13328;DHT22;6733;51.044;3.746;2022-07-12T14:56:30;32.50;70.70
13328;DHT22;6733;51.044;3.746;2022-07-12T14:58:56;32.60;70.90
13328;DHT22;6733;51.044;3.746;2022-07-12T15:01:23;32.60;72.20
13328;DHT22;6733;51.044;3.746;2022-07-12T15:03:49;33.10;70.80
13328;DHT22;6733;51.044;3.746;2022-07-12T15:06:15;32.80;70.00
13328;DHT22;6733;51.044;3.746;2022-07-12T15:08:41;32.50;71.10
13328;DHT22;6733;51.044;3.746;2022-07-12T15:11:07;32.60;71.10
13328;DHT22;6733;51.044;3.746;2022-07-12T15:13:33;32.30;71.00
13328;DHT22;6733;51.044;3.746;2022-07-12T15:15:59;32.40;70.40
13328;DHT22;6733;51.044;3.746;2022-07-12T15:18:25;32.60;68.70
13328;DHT22;6733;51.044;3.746;2022-07-12T15:20:52;32.90;69.10
13328;DHT22;6733;51.044;3.746;2022-07-12T15:23:18;33.30;69.10
13328;DHT22;6733;51.044;3.746;2022-07-12T15:25:44;33.50;70.10
13328;DHT22;6733;51.044;3.746;2022-07-12T15:28:10;33.60;70.20
13328;DHT22;6733;51.044;3.746;2022-07-12T15:30:36;33.90;69.60
13328;DHT22;6733;51.044;3.746;2022-07-12T15:33:02;33.70;68.90
13328;DHT22;6733;51.044;3.746;2022-07-12T15:35:28;33.90;67.90
13328;DHT22;6733;51.044;3.746;2022-07-12T15:37:54;33.60;67.90
13328;DHT22;6733;51.044;3.746;2022-07-12T15:40:20;33.00;68.20
13328;DHT22;6733;51.044;3.746;2022-07-12T15:42:47;32.80;69.40
13328;DHT22;6733;51.044;3.746;2022-07-12T15:45:13;32.50;70.60
13328;DHT22;6733;51.044;3.746;2022-07-12T15:47:39;32.20;71.40
13328;DHT22;6733;51.044;3.746;2022-07-12T15:50:06;32.10;72.80
13328;DHT22;6733;51.044;3.746;2022-07-12T15:52:32;31.80;70.90
13328;DHT22;6733;51.044;3.746;2022-07-12T15:55:17;31.70;72.80
13328;DHT22;6733;51.044;3.746;2022-07-12T15:57:43;31.80;72.40
13328;DHT22;6733;51.044;3.746;2022-07-12T16:00:09;31.90;73.20
13328;DHT22;6733;51.044;3.746;2022-07-12T16:02:36;32.00;71.20
13328;DHT22;6733;51.044;3.746;2022-07-12T16:05:03;31.90;69.60
13328;DHT22;6733;51.044;3.746;2022-07-12T16:07:30;31.90;70.60
13328;DHT22;6733;51.044;3.746;2022-07-12T16:09:56;31.90;69.70
13328;DHT22;6733;51.044;3.746;2022-07-12T16:12:22;32.50;69.80